Time;durP1;ratioP1;P1;durP2;ratioP2;P2;SDS_P1;SDS_P2;PMS_P1;PMS_P2;Temp;Humidity;BMP_temperature;BMP_pressure;BME280_temperature;BME280_humidity;BME280_pressure;Samples;Min_cycle;Max_cycle;Signal;HPM_P1;HPM_P2
2022/10/12 00:01:44;;;;;;;19.85;12.80;;;;;;;;;;5084281;28;20078;-58
2022/10/12 00:07:18;;;;;;;15.13;11.80;;;;;;;;;;5127163;28;20042;-58
2022/10/12 00:12:51;;;;;;;16.80;14.25;;;;;;;;;;5126301;28;20038;-58
2022/10/12 00:15:26;;;;;;;20.98;13.90;;;;;;;;;;5126096;28;20079;-58
2022/10/12 00:21:17;;;;;;;19.05;12.57;;;;;;;;;;5063145;28;20043;-58
2022/10/12 00:23:53;;;;;;;16.83;12.43;;;;;;;;;;5106643;28;20436;-58
2022/10/12 00:26:34;;;;;;;19.98;14.30;;;;;;;;;;5126990;28;20093;-58
2022/10/12 00:29:12;;;;;;;18.77;13.32;;;;;;;;;;5126271;28;20128;-58
2022/10/12 00:31:48;;;;;;;17.25;12.77;;;;;;;;;;5102231;28;20040;-58
2022/10/12 00:34:23;;;;;;;18.75;13.75;;;;;;;;;;5127016;27;20054;-58
2022/10/12 00:37:19;;;;;;;18.55;13.40;;;;;;;;;;5146690;28;20043;-58
2022/10/12 00:39:54;;;;;;;18.05;13.95;;;;;;;;;;5138798;28;20039;-58
2022/10/12 00:46:06;;;;;;;15.52;12.88;;;;;;;;;;5118783;28;20088;-58
2022/10/12 00:48:58;;;;;;;21.65;13.57;;;;;;;;;;5146643;28;20465;-58
2022/10/12 00:51:40;;;;;;;15.05;12.85;;;;;;;;;;5133511;28;20046;-58
2022/10/12 00:54:22;;;;;;;21.65;14.95;;;;;;;;;;5146329;28;20028;-58
2022/10/12 00:57:08;;;;;;;20.50;14.45;;;;;;;;;;5146383;28;20453;-58
2022/10/12 01:05:46;;;;;;;22.77;14.07;;;;;;;;;;5050363;28;20119;-58
2022/10/12 01:08:44;;;;;;;14.68;12.90;;;;;;;;;;5086289;28;20513;-58
2022/10/12 01:11:28;;;;;;;20.25;13.23;;;;;;;;;;5092020;28;20040;-57
2022/10/12 01:17:40;;;;;;;15.90;14.25;;;;;;;;;;5103451;28;20058;-58
2022/10/12 01:20:26;;;;;;;;;;;;;;;;;;;;;
2022/10/12 01:23:18;;;;;;;19.40;11.85;;;;;;;;;;5092747;28;20128;-58
2022/10/12 01:26:02;;;;;;;17.20;14.20;;;;;;;;;;5103644;28;20043;-58
2022/10/12 01:28:48;;;;;;;21.73;14.02;;;;;;;;;;5103759;28;20517;-58
2022/10/12 01:31:39;;;;;;;19.25;13.63;;;;;;;;;;5118277;28;20506;-58
2022/10/12 01:37:49;;;;;;;15.98;13.88;;;;;;;;;;5146317;28;20033;-58
2022/10/12 01:40:37;;;;;;;18.90;14.70;;;;;;;;;;5146706;28;20059;-56
2022/10/12 01:43:12;;;;;;;17.73;12.95;;;;;;;;;;5103386;28;20054;-58
2022/10/12 01:52:07;;;;;;;15.65;12.63;;;;;;;;;;5106558;28;20062;-58
2022/10/12 01:54:53;;;;;;;12.18;10.75;;;;;;;;;;5069341;28;20035;-58
2022/10/12 02:09:52;;;;;;;14.75;13.07;;;;;;;;;;5061978;28;20051;-58
2022/10/12 02:12:30;;;;;;;14.90;13.43;;;;;;;;;;5089100;28;20056;-58
2022/10/12 02:15:05;;;;;;;19.23;12.82;;;;;;;;;;5090649;28;20032;-58
2022/10/12 02:17:34;;;;;;;18.67;13.25;;;;;;;;;;5106277;28;20051;-57
2022/10/12 02:20:04;;;;;;;15.27;12.25;;;;;;;;;;5119056;27;20110;-58
2022/10/12 02:23:06;;;;;;;15.43;12.53;;;;;;;;;;5149373;27;20031;-58
2022/10/12 02:26:06;;;;;;;;;;;;;;;;;;;;;
2022/10/12 02:28:29;;;;;;;20.27;12.90;;;;;;;;;;5146825;27;20031;-58
2022/10/12 02:31:30;;;;;;;14.55;12.75;;;;;;;;;;5149440;27;20019;-58
2022/10/12 02:34:09;;;;;;;16.13;11.82;;;;;;;;;;5044231;28;20053;-58
2022/10/12 02:43:34;;;;;;;19.08;12.85;;;;;;;;;;5085541;28;20040;-58
2022/10/12 02:49:09;;;;;;;16.92;13.18;;;;;;;;;;5134076;27;20468;-58
2022/10/12 02:52:12;;;;;;;21.25;13.45;;;;;;;;;;5148620;27;20065;-58
2022/10/12 02:54:42;;;;;;;17.00;13.32;;;;;;;;;;5045000;28;20036;-58
2022/10/12 02:57:35;;;;;;;18.10;13.23;;;;;;;;;;5046144;28;20025;-58
2022/10/12 03:00:10;;;;;;;14.57;12.88;;;;;;;;;;5046033;28;20271;-58
2022/10/12 03:02:57;;;;;;;12.23;10.95;;;;;;;;;;5046058;28;20030;-56
2022/10/12 03:05:40;;;;;;;14.90;12.23;;;;;;;;;;5032194;28;20037;-58
2022/10/12 03:08:44;;;;;;;18.27;13.27;;;;;;;;;;5045442;28;20033;-58
2022/10/12 03:11:34;;;;;;;15.48;13.43;;;;;;;;;;5045492;28;20101;-58
2022/10/12 03:14:17;;;;;;;15.00;11.90;;;;;;;;;;5028382;28;20045;-57
2022/10/12 03:28:29;;;;;;;16.38;12.68;;;;;;;;;;5147162;27;20031;-56
2022/10/12 03:31:17;;;;;;;17.15;14.02;;;;;;;;;;5144216;27;20027;-58
2022/10/12 03:34:06;;;;;;;;;;;;;;;;;;;;;
2022/10/12 03:45:55;;;;;;;;;;;;;;;;;;;;;
2022/10/12 03:48:41;;;;;;;;;;;;;;;;;;;;;
2022/10/12 03:51:26;;;;;;;17.02;12.52;;;;;;;;;;5135833;27;20440;-57
2022/10/12 03:54:21;;;;;;;18.25;14.00;;;;;;;;;;5135705;27;20468;-56
2022/10/12 03:57:15;;;;;;;15.95;13.18;;;;;;;;;;5134270;27;20027;-57
2022/10/12 03:59:53;;;;;;;17.23;12.68;;;;;;;;;;5089832;27;20353;-58
2022/10/12 04:03:32;;;;;;;15.07;12.80;;;;;;;;;;5136185;27;20034;-57
2022/10/12 04:05:50;;;;;;;17.95;13.63;;;;;;;;;;5113045;27;20027;-58
2022/10/12 04:08:38;;;;;;;;;;;;;;;;;;;;;
2022/10/12 04:11:23;;;;;;;;;;;;;;;;;;;;;
2022/10/12 04:14:34;;;;;;;22.48;14.43;;;;;;;;;;5119766;27;20100;-58
2022/10/12 04:17:24;;;;;;;22.38;13.45;;;;;;;;;;5033367;28;20033;-58
2022/10/12 04:23:29;;;;;;;20.00;15.43;;;;;;;;;;5135708;27;20080;-58
2022/10/12 04:26:22;;;;;;;;;;;;;;;;;;;;;
2022/10/12 04:29:04;;;;;;;17.38;14.65;;;;;;;;;;5135979;27;20103;-55
2022/10/12 04:31:58;;;;;;;24.58;14.27;;;;;;;;;;5141930;27;20049;-58
2022/10/12 04:37:45;;;;;;;19.25;14.77;;;;;;;;;;5128291;28;20058;-58
2022/10/12 04:40:14;;;;;;;17.58;14.52;;;;;;;;;;5145290;28;20102;-58
2022/10/12 04:43:06;;;;;;;16.33;14.20;;;;;;;;;;5137165;28;20039;-58
2022/10/12 04:46:02;;;;;;;23.55;16.77;;;;;;;;;;5145731;28;20044;-58
2022/10/12 04:48:38;;;;;;;18.35;14.07;;;;;;;;;;5103986;28;20056;-58
2022/10/12 04:51:24;;;;;;;18.23;15.93;;;;;;;;;;5147039;28;20116;-58
2022/10/12 04:54:13;;;;;;;19.85;15.98;;;;;;;;;;5145412;28;20059;-58
2022/10/12 04:57:11;;;;;;;17.30;14.48;;;;;;;;;;5112600;28;20035;-58
2022/10/12 04:59:58;;;;;;;20.55;15.60;;;;;;;;;;5127218;28;20540;-58
2022/10/12 05:02:52;;;;;;;24.80;14.65;;;;;;;;;;5145970;28;20047;-58
2022/10/12 05:05:41;;;;;;;;;;;;;;;;;;;;;
2022/10/12 05:08:19;;;;;;;24.92;16.08;;;;;;;;;;5146660;28;20039;-58
2022/10/12 05:10:57;;;;;;;24.25;16.73;;;;;;;;;;5145735;28;20031;-58
2022/10/12 05:16:48;;;;;;;26.73;16.63;;;;;;;;;;5031563;28;20033;-58
2022/10/12 05:22:36;;;;;;;36.75;19.33;;;;;;;;;;5044328;28;20043;-57
2022/10/12 05:34:29;;;;;;;36.60;18.83;;;;;;;;;;4985812;28;20061;-58
2022/10/12 05:37:35;;;;;;;30.70;20.13;;;;;;;;;;5015443;28;20492;-58
2022/10/12 05:40:15;;;;;;;35.65;21.25;;;;;;;;;;5007506;28;20034;-58
2022/10/12 05:42:50;;;;;;;30.27;19.07;;;;;;;;;;5015777;28;20092;-58
2022/10/12 05:45:38;;;;;;;36.28;21.60;;;;;;;;;;5010959;28;20034;-60
2022/10/12 05:48:33;;;;;;;29.85;19.67;;;;;;;;;;5015424;28;20443;-58
2022/10/12 05:51:40;;;;;;;27.63;20.52;;;;;;;;;;5008906;28;20206;-58
2022/10/12 05:54:19;;;;;;;29.60;20.00;;;;;;;;;;5068513;28;20045;-58
2022/10/12 06:03:31;;;;;;;34.35;21.90;;;;;;;;;;5015537;28;20049;-58
2022/10/12 06:09:30;;;;;;;;;;;;;;;;;;;;;
2022/10/12 06:12:39;;;;;;;24.70;18.20;;;;;;;;;;5074384;28;20441;-58
2022/10/12 06:15:15;;;;;;;29.35;20.30;;;;;;;;;;5068755;28;20036;-54
2022/10/12 06:21:14;;;;;;;29.42;17.85;;;;;;;;;;5107717;27;20031;-58
2022/10/12 06:23:49;;;;;;;23.20;18.55;;;;;;;;;;5137614;27;20190;-58
2022/10/12 06:26:28;;;;;;;27.40;21.23;;;;;;;;;;5119108;27;20361;-58
2022/10/12 06:32:19;;;;;;;28.85;20.45;;;;;;;;;;5094408;27;20035;-58
2022/10/12 06:38:03;;;;;;;27.30;20.70;;;;;;;;;;5118080;27;20491;-58
2022/10/12 06:40:47;;;;;;;30.40;20.08;;;;;;;;;;5100007;27;20032;-56
2022/10/12 06:47:00;;;;;;;27.58;18.40;;;;;;;;;;5034224;28;20036;-58
2022/10/12 06:49:45;;;;;;;;;;;;;;;;;;;;;
2022/10/12 06:52:45;;;;;;;24.20;18.77;;;;;;;;;;4953166;28;20442;-58
2022/10/12 06:59:13;;;;;;;28.15;20.45;;;;;;;;;;4936763;29;20095;-58
2022/10/12 07:01:51;;;;;;;26.02;19.67;;;;;;;;;;4948867;29;20095;-58
2022/10/12 07:07:56;;;;;;;28.13;18.27;;;;;;;;;;4987271;28;20042;-58
2022/10/12 07:10:32;;;;;;;;;;;;;;;;;;;;;
2022/10/12 07:13:04;;;;;;;31.58;21.58;;;;;;;;;;5029254;28;20052;-59
2022/10/12 07:15:51;;;;;;;35.60;24.88;;;;;;;;;;5032757;28;20029;-58
2022/10/12 07:18:27;;;;;;;34.53;21.02;;;;;;;;;;5014840;28;20541;-58
2022/10/12 07:21:24;;;;;;;;;;;;;;;;;;;;;
2022/10/12 07:26:58;;;;;;;29.80;22.58;;;;;;;;;;5136448;27;20038;-58
2022/10/12 07:29:36;;;;;;;31.63;22.77;;;;;;;;;;5136504;27;20030;-59
2022/10/12 07:32:15;;;;;;;32.00;23.73;;;;;;;;;;5136018;27;20039;-59
2022/10/12 07:35:25;;;;;;;29.92;22.67;;;;;;;;;;5134962;27;20043;-59
2022/10/12 07:38:12;;;;;;;30.05;22.67;;;;;;;;;;5092714;28;20083;-59
2022/10/12 07:41:18;;;;;;;30.08;23.23;;;;;;;;;;5093094;28;20040;-59
2022/10/12 07:44:05;;;;;;;;;;;;;;;;;;;;;
2022/10/12 07:47:18;;;;;;;25.50;21.40;;;;;;;;;;5092073;28;20072;-59
2022/10/12 07:50:10;;;;;;;27.60;23.42;;;;;;;;;;5092384;28;20046;-59
2022/10/12 07:52:47;;;;;;;35.67;21.17;;;;;;;;;;5092618;28;20059;-59
2022/10/12 07:55:32;;;;;;;29.88;21.98;;;;;;;;;;5092637;28;20042;-59
2022/10/12 07:58:28;;;;;;;;;;;;;;;;;;;;;
2022/10/12 08:01:34;;;;;;;29.20;21.75;;;;;;;;;;5092439;28;20428;-59
2022/10/12 08:04:13;;;;;;;28.08;22.13;;;;;;;;;;5098507;27;20055;-59
2022/10/12 08:06:47;;;;;;;28.42;21.17;;;;;;;;;;5111400;27;20472;-59
2022/10/12 08:09:30;;;;;;;36.20;22.02;;;;;;;;;;5135725;27;20088;-59
2022/10/12 08:21:34;;;;;;;28.80;19.88;;;;;;;;;;5052081;28;20029;-60
2022/10/12 08:24:35;;;;;;;26.92;18.92;;;;;;;;;;5132931;27;20043;-59
2022/10/12 08:30:43;;;;;;;27.77;19.58;;;;;;;;;;5135392;27;20492;-60
2022/10/12 08:34:05;;;;;;;24.00;18.73;;;;;;;;;;5135256;27;20119;-60
2022/10/12 08:36:53;;;;;;;25.58;18.90;;;;;;;;;;5031958;28;20073;-59
2022/10/12 08:39:33;;;;;;;27.27;19.17;;;;;;;;;;5052370;28;20032;-59
2022/10/12 08:42:20;;;;;;;24.52;17.73;;;;;;;;;;5034008;28;20044;-60
2022/10/12 08:45:20;;;;;;;28.50;20.42;;;;;;;;;;5036043;28;20056;-59
2022/10/12 08:48:15;;;;;;;20.90;18.58;;;;;;;;;;5086806;28;20418;-60
2022/10/12 08:50:57;;;;;;;22.13;19.08;;;;;;;;;;5107910;28;20028;-59
2022/10/12 08:54:01;;;;;;;25.05;19.15;;;;;;;;;;5115165;28;20453;-60
2022/10/12 08:57:12;;;;;;;20.95;17.77;;;;;;;;;;5076273;28;20412;-59
2022/10/12 09:03:01;;;;;;;24.85;16.83;;;;;;;;;;5016738;28;20041;-60
2022/10/12 09:11:48;;;;;;;20.50;16.10;;;;;;;;;;5036242;28;20044;-59
2022/10/12 09:14:54;;;;;;;18.55;16.35;;;;;;;;;;5113755;28;20401;-60
2022/10/12 09:17:45;;;;;;;20.60;16.40;;;;;;;;;;5088154;28;20039;-60
2022/10/12 09:21:10;;;;;;;24.77;16.73;;;;;;;;;;5119178;28;20050;-59
2022/10/12 09:23:54;;;;;;;21.30;15.98;;;;;;;;;;5080716;28;20474;-59
2022/10/12 09:26:47;;;;;;;25.50;17.35;;;;;;;;;;5055146;28;20568;-60
2022/10/12 09:29:40;;;;;;;20.35;16.02;;;;;;;;;;5074846;28;20493;-59
2022/10/12 09:32:31;;;;;;;19.92;16.05;;;;;;;;;;5057610;28;20044;-59
2022/10/12 09:38:23;;;;;;;20.50;14.50;;;;;;;;;;5116206;27;20380;-59
2022/10/12 09:41:37;;;;;;;18.15;13.70;;;;;;;;;;5119771;27;20110;-59
2022/10/12 09:44:39;;;;;;;17.60;13.05;;;;;;;;;;5075734;27;20524;-60
2022/10/12 09:47:42;;;;;;;25.13;14.45;;;;;;;;;;5018622;28;20384;-59
2022/10/12 09:50:32;;;;;;;17.05;11.82;;;;;;;;;;4995400;28;20038;-60
2022/10/12 09:53:20;;;;;;;14.93;11.18;;;;;;;;;;4976840;28;20038;-59
2022/10/12 09:56:16;;;;;;;;;;;;;;;;;;;;;
2022/10/12 10:02:01;;;;;;;17.60;10.95;;;;;;;;;;5017992;28;20040;-59
2022/10/12 10:05:03;;;;;;;;;;;;;;;;;;;;;
2022/10/12 10:13:26;;;;;;;15.20;9.77;;;;;;;;;;5052549;28;20107;-60
2022/10/12 10:16:19;;;;;;;9.75;8.77;;;;;;;;;;5094715;28;20404;-59
2022/10/12 10:19:03;;;;;;;16.40;11.55;;;;;;;;;;5077365;28;20016;-59
2022/10/12 10:25:03;;;;;;;12.02;9.27;;;;;;;;;;5137603;27;20415;-59
2022/10/12 10:27:55;;;;;;;14.73;10.38;;;;;;;;;;5016788;28;20037;-60
2022/10/12 10:33:24;;;;;;;12.43;9.13;;;;;;;;;;5029020;28;20048;-59
2022/10/12 10:36:09;;;;;;;11.52;9.10;;;;;;;;;;5005674;28;20041;-59
2022/10/12 10:39:01;;;;;;;12.20;9.25;;;;;;;;;;5107747;27;20123;-58
2022/10/12 10:41:36;;;;;;;14.18;9.68;;;;;;;;;;5136572;27;20565;-58
2022/10/12 10:44:40;;;;;;;13.50;9.40;;;;;;;;;;5137840;27;20548;-58
2022/10/12 10:47:49;;;;;;;;;;;;;;;;;;;;;
2022/10/12 10:53:36;;;;;;;13.32;9.35;;;;;;;;;;5136887;27;20044;-59
2022/10/12 10:56:30;;;;;;;14.80;9.30;;;;;;;;;;5137722;27;20057;-59
2022/10/12 10:59:09;;;;;;;9.63;8.10;;;;;;;;;;5137588;27;20417;-60
2022/10/12 11:01:54;;;;;;;11.40;9.52;;;;;;;;;;5113223;27;20548;-59
2022/10/12 11:04:27;;;;;;;18.25;9.43;;;;;;;;;;5137138;27;20050;-58
2022/10/12 11:10:26;;;;;;;14.38;8.45;;;;;;;;;;5053409;28;20040;-58
2022/10/12 11:12:56;;;;;;;11.05;8.43;;;;;;;;;;5005979;28;20436;-59
2022/10/12 11:15:41;;;;;;;15.77;8.55;;;;;;;;;;5054457;28;20037;-58
2022/10/12 11:18:35;;;;;;;11.00;8.98;;;;;;;;;;5053776;28;20593;-58
2022/10/12 11:21:38;;;;;;;13.05;9.30;;;;;;;;;;5077690;27;20499;-59
2022/10/12 11:24:32;;;;;;;14.32;8.25;;;;;;;;;;5136933;27;20419;-59
2022/10/12 11:27:16;;;;;;;13.57;10.43;;;;;;;;;;5073401;28;20594;-59
2022/10/12 11:30:10;;;;;;;11.43;9.30;;;;;;;;;;5057072;28;20051;-60
2022/10/12 11:32:54;;;;;;;11.57;10.10;;;;;;;;;;5073786;28;20064;-57
2022/10/12 11:35:49;;;;;;;13.95;9.93;;;;;;;;;;5073240;28;20029;-58
2022/10/12 11:38:44;;;;;;;16.52;9.32;;;;;;;;;;5055665;28;20044;-57
2022/10/12 11:41:35;;;;;;;16.38;8.45;;;;;;;;;;5078121;28;20047;-58
2022/10/12 11:44:22;;;;;;;16.23;10.10;;;;;;;;;;5073184;28;20067;-57
2022/10/12 11:47:05;;;;;;;10.57;7.80;;;;;;;;;;5053860;28;20115;-57
2022/10/12 11:50:21;;;;;;;10.52;9.13;;;;;;;;;;5072355;28;20033;-57
2022/10/12 11:53:10;;;;;;;13.45;8.32;;;;;;;;;;4993252;28;20047;-57
2022/10/12 11:55:58;;;;;;;10.63;7.57;;;;;;;;;;4993063;28;20488;-57
2022/10/12 12:01:38;;;;;;;8.73;7.20;;;;;;;;;;5048939;28;20029;-59
2022/10/12 12:04:25;;;;;;;9.77;7.72;;;;;;;;;;5072448;28;20450;-59
2022/10/12 12:07:19;;;;;;;9.73;7.22;;;;;;;;;;5055312;28;20545;-58
2022/10/12 12:10:23;;;;;;;8.05;7.13;;;;;;;;;;5107785;27;20042;-58
2022/10/12 12:13:27;;;;;;;;;;;;;;;;;;;;;
2022/10/12 12:16:08;;;;;;;10.80;7.40;;;;;;;;;;5107632;27;20039;-59
2022/10/12 12:18:40;;;;;;;;;;;;;;;;;;5136758;27;20051;-58
2022/10/12 12:24:29;;;;;;;8.90;6.53;;;;;;;;;;5117273;27;20033;-58
2022/10/12 12:27:34;;;;;;;;;;;;;;;;;;;;;
2022/10/12 12:30:43;;;;;;;12.25;6.47;;;;;;;;;;5132202;27;20027;-59
2022/10/12 12:34:13;;;;;;;;;;;;;;;;;;;;;
2022/10/12 12:46:50;;;;;;;9.23;6.20;;;;;;;;;;5026410;28;20068;-59
2022/10/12 12:49:45;;;;;;;6.88;5.45;;;;;;;;;;5135378;28;20015;-59
2022/10/12 12:52:33;;;;;;;6.32;5.72;;;;;;;;;;5135511;28;20475;-59
2022/10/12 12:55:17;;;;;;;10.23;6.18;;;;;;;;;;5117593;28;20035;-60
2022/10/12 12:58:14;;;;;;;6.28;5.22;;;;;;;;;;5135924;28;20023;-60
2022/10/12 13:04:05;;;;;;;7.07;5.22;;;;;;;;;;5135077;28;20030;-58
2022/10/12 13:06:57;;;;;;;10.40;5.32;;;;;;;;;;5135066;28;20067;-58
2022/10/12 13:13:06;;;;;;;7.47;5.70;;;;;;;;;;5035966;28;20164;-59
2022/10/12 13:15:58;;;;;;;6.25;4.75;;;;;;;;;;5134940;28;20023;-59
2022/10/12 13:19:13;;;;;;;7.47;5.72;;;;;;;;;;5135767;28;20020;-59
2022/10/12 13:24:56;;;;;;;9.75;5.22;;;;;;;;;;4973505;28;20380;-59
2022/10/12 13:30:34;;;;;;;5.95;4.93;;;;;;;;;;5025224;28;20129;-59
2022/10/12 13:33:25;;;;;;;6.30;5.68;;;;;;;;;;5088073;28;20054;-58
2022/10/12 13:36:02;;;;;;;;;;;;;;;;;;5134751;28;20035;-59
2022/10/12 13:38:41;;;;;;;6.72;5.45;;;;;;;;;;5135103;28;19903;-59
2022/10/12 13:41:26;;;;;;;11.38;7.45;;;;;;;;;;5130911;28;20118;-59
2022/10/12 13:44:07;;;;;;;9.80;5.55;;;;;;;;;;5138641;27;20520;-59
2022/10/12 13:53:36;;;;;;;8.32;5.70;;;;;;;;;;5071807;27;20044;-59
2022/10/12 13:59:30;;;;;;;;;;;;;;;;;;;;;
2022/10/12 14:02:28;;;;;;;8.10;5.65;;;;;;;;;;5088108;27;20116;-59
2022/10/12 14:05:03;;;;;;;5.70;4.90;;;;;;;;;;5130463;27;20035;-59
2022/10/12 14:14:04;;;;;;;8.85;6.18;;;;;;;;;;5123910;27;20031;-59
2022/10/12 14:17:02;;;;;;;;;;;;;;;;;;;;;
2022/10/12 14:19:58;;;;;;;8.40;5.00;;;;;;;;;;5138190;27;20023;-59
2022/10/12 14:26:18;;;;;;;;;;;;;;;;;;;;;
2022/10/12 14:28:54;;;;;;;6.75;5.53;;;;;;;;;;5135447;27;20088;-59
2022/10/12 14:31:48;;;;;;;;;;;;;;;;;;;;;
2022/10/12 14:34:38;;;;;;;6.97;5.30;;;;;;;;;;5137906;27;20035;-59
2022/10/12 14:37:13;;;;;;;8.82;6.60;;;;;;;;;;5136447;27;20043;-59
2022/10/12 14:40:08;;;;;;;8.15;5.97;;;;;;;;;;5137452;27;20106;-59
2022/10/12 14:42:57;;;;;;;7.93;5.57;;;;;;;;;;5112816;27;20488;-59
2022/10/12 14:45:54;;;;;;;9.00;5.78;;;;;;;;;;5103540;27;20485;-59
2022/10/12 14:54:50;;;;;;;14.20;5.60;;;;;;;;;;5136500;27;20031;-59
2022/10/12 15:00:38;;;;;;;7.35;5.47;;;;;;;;;;5120440;27;20038;-59
2022/10/12 15:03:22;;;;;;;10.73;5.93;;;;;;;;;;5134507;27;20378;-59
2022/10/12 15:06:11;;;;;;;8.63;6.22;;;;;;;;;;5073138;28;20040;-59
2022/10/12 15:08:48;;;;;;;10.57;7.10;;;;;;;;;;5073251;28;20055;-59
2022/10/12 15:11:20;;;;;;;12.70;6.03;;;;;;;;;;5053630;28;20067;-59
2022/10/12 15:14:15;;;;;;;10.82;6.93;;;;;;;;;;5073189;28;20028;-59
2022/10/12 15:16:56;;;;;;;8.20;6.38;;;;;;;;;;5073286;28;20038;-59
2022/10/12 15:19:37;;;;;;;9.82;6.93;;;;;;;;;;5056056;28;20036;-59
2022/10/12 15:22:32;;;;;;;9.10;5.80;;;;;;;;;;5070522;28;20160;-59
2022/10/12 15:25:52;;;;;;;9.20;7.43;;;;;;;;;;5067381;28;20036;-59
2022/10/12 15:28:05;;;;;;;7.75;5.50;;;;;;;;;;5062188;28;20378;-59
2022/10/12 15:31:09;;;;;;;7.72;5.15;;;;;;;;;;5073699;28;20039;-59
2022/10/12 15:34:19;;;;;;;9.68;6.07;;;;;;;;;;5073120;28;20029;-59
2022/10/12 15:37:26;;;;;;;9.65;6.82;;;;;;;;;;5024196;28;20447;-59
2022/10/12 15:39:58;;;;;;;11.65;7.20;;;;;;;;;;5019509;28;20053;-59
2022/10/12 15:46:07;;;;;;;8.65;6.15;;;;;;;;;;5112552;27;20027;-60
2022/10/12 15:51:50;;;;;;;8.35;6.25;;;;;;;;;;5092973;28;20028;-59
2022/10/12 15:54:37;;;;;;;12.77;6.88;;;;;;;;;;5115801;27;20035;-59
2022/10/12 15:57:38;;;;;;;9.60;5.78;;;;;;;;;;5136773;27;20088;-59
2022/10/12 16:03:34;;;;;;;12.45;6.38;;;;;;;;;;4998081;28;20043;-60
2022/10/12 16:09:08;;;;;;;11.55;5.45;;;;;;;;;;5096118;27;20109;-60
2022/10/12 16:11:44;;;;;;;;;;;;;;;;;;;;;
2022/10/12 16:14:40;;;;;;;8.27;6.45;;;;;;;;;;5119768;27;20121;-64
2022/10/12 16:20:48;;;;;;;8.32;5.32;;;;;;;;;;5004515;28;20057;-60
2022/10/12 16:23:38;;;;;;;11.43;5.72;;;;;;;;;;5033762;28;20021;-60
2022/10/12 16:27:01;;;;;;;11.75;6.05;;;;;;;;;;4943712;29;20035;-60
2022/10/12 16:29:55;;;;;;;7.25;5.32;;;;;;;;;;4971241;28;20110;-60
2022/10/12 16:35:23;;;;;;;11.43;6.13;;;;;;;;;;5031563;28;20036;-60
2022/10/12 16:37:49;;;;;;;13.32;6.20;;;;;;;;;;5015018;28;20057;-60
2022/10/12 16:43:55;;;;;;;9.95;5.68;;;;;;;;;;5018203;28;20045;-60
2022/10/12 16:53:16;;;;;;;10.45;6.05;;;;;;;;;;5058795;28;20314;-60
2022/10/12 16:56:07;;;;;;;7.03;6.30;;;;;;;;;;5072357;28;20031;-60
2022/10/12 17:01:54;;;;;;;;;;;;;;;;;;;;;
2022/10/12 17:04:10;;;;;;;16.70;7.80;;;;;;;;;;5102128;28;19945;-60
2022/10/12 17:07:07;;;;;;;;;;;;;;;;;;;;;
2022/10/12 17:09:36;;;;;;;15.38;7.30;;;;;;;;;;5094949;28;20038;-59
2022/10/12 17:12:21;;;;;;;9.02;7.80;;;;;;;;;;5114473;28;20032;-59
2022/10/12 17:23:50;;;;;;;;;;;;;;;;;;;;;
2022/10/12 17:26:49;;;;;;;;;;;;;;;;;;;;;
2022/10/12 17:29:31;;;;;;;9.75;7.68;;;;;;;;;;5118869;28;20423;-59
2022/10/12 17:32:26;;;;;;;16.92;8.73;;;;;;;;;;5119213;28;20445;-59
2022/10/12 17:35:17;;;;;;;8.57;7.57;;;;;;;;;;5014959;28;20088;-59
2022/10/12 17:37:58;;;;;;;8.63;7.70;;;;;;;;;;5022042;28;20153;-59
2022/10/12 17:43:41;;;;;;;11.63;7.90;;;;;;;;;;4992929;28;20040;-59
2022/10/12 17:46:15;;;;;;;28.05;20.73;;;;;;;;;;4998620;28;20037;-59
2022/10/12 17:48:55;;;;;;;21.05;15.32;;;;;;;;;;5015482;28;20030;-59
2022/10/12 17:57:16;;;;;;;17.73;14.80;;;;;;;;;;5095598;28;20031;-59
2022/10/12 18:00:02;;;;;;;32.83;25.45;;;;;;;;;;5078175;28;20028;-59
2022/10/12 18:02:46;;;;;;;23.60;17.42;;;;;;;;;;5092938;28;20044;-59
2022/10/12 18:05:38;;;;;;;19.20;15.13;;;;;;;;;;5095219;28;20039;-59
2022/10/12 18:11:09;;;;;;;16.23;12.10;;;;;;;;;;5105587;27;20046;-59
2022/10/12 18:14:08;;;;;;;16.55;12.00;;;;;;;;;;5138973;27;20514;-59
2022/10/12 18:16:49;;;;;;;20.95;13.70;;;;;;;;;;5110366;27;20039;-59
2022/10/12 18:19:39;;;;;;;18.08;15.00;;;;;;;;;;5139238;27;20027;-59
2022/10/12 18:25:06;;;;;;;26.45;17.48;;;;;;;;;;5070721;28;20486;-59
2022/10/12 18:27:53;;;;;;;14.88;11.95;;;;;;;;;;5057678;28;20426;-59
2022/10/12 18:30:42;;;;;;;19.40;10.98;;;;;;;;;;5122255;27;20038;-59
2022/10/12 18:39:24;;;;;;;13.20;11.15;;;;;;;;;;5055346;28;20091;-59
2022/10/12 18:45:11;;;;;;;14.32;10.05;;;;;;;;;;4994130;28;20041;-60
2022/10/12 18:47:51;;;;;;;10.80;9.73;;;;;;;;;;5095750;27;20042;-60
2022/10/12 18:50:44;;;;;;;16.40;11.10;;;;;;;;;;5094478;28;20469;-60
2022/10/12 18:56:36;;;;;;;11.98;9.45;;;;;;;;;;5085166;28;20504;-60
2022/10/12 19:05:26;;;;;;;14.48;12.45;;;;;;;;;;5093456;28;20039;-60
2022/10/12 19:08:20;;;;;;;17.73;11.35;;;;;;;;;;5075000;28;20110;-60
2022/10/12 19:20:50;;;;;;;15.00;10.85;;;;;;;;;;5122938;27;20058;-60
2022/10/12 19:23:46;;;;;;;15.35;11.70;;;;;;;;;;5136068;27;20027;-60
2022/10/12 19:26:38;;;;;;;;;;;;;;;;;;;;;
2022/10/12 19:29:33;;;;;;;15.13;9.93;;;;;;;;;;5132906;27;20033;-60
2022/10/12 19:32:24;;;;;;;17.48;11.80;;;;;;;;;;5081632;27;20492;-60
2022/10/12 19:35:23;;;;;;;11.23;9.98;;;;;;;;;;5118035;27;20476;-60
2022/10/12 19:38:11;;;;;;;12.98;10.90;;;;;;;;;;5115548;27;20050;-60
2022/10/12 19:40:46;;;;;;;18.80;11.07;;;;;;;;;;5098732;28;20044;-59
2022/10/12 19:43:30;;;;;;;14.73;11.23;;;;;;;;;;5113376;28;20063;-59
2022/10/12 19:52:44;;;;;;;18.45;12.10;;;;;;;;;;5080855;28;20100;-59
2022/10/12 20:03:56;;;;;;;13.93;11.55;;;;;;;;;;5101724;28;20033;-59
2022/10/12 20:12:34;;;;;;;11.93;10.20;;;;;;;;;;5097249;28;20035;-60
2022/10/12 20:15:29;;;;;;;13.85;11.07;;;;;;;;;;5052829;28;20110;-60
2022/10/12 20:18:08;;;;;;;18.02;11.65;;;;;;;;;;5052327;28;20056;-60
2022/10/12 20:24:18;;;;;;;19.25;12.32;;;;;;;;;;5049463;28;20507;-60
2022/10/12 20:27:09;;;;;;;14.77;12.20;;;;;;;;;;5051997;28;20082;-60
2022/10/12 20:29:39;;;;;;;22.75;14.25;;;;;;;;;;5051046;28;20044;-60
2022/10/12 20:41:11;;;;;;;17.92;12.38;;;;;;;;;;5072749;28;20441;-60
2022/10/12 20:47:11;;;;;;;13.90;11.43;;;;;;;;;;5092873;28;20480;-60
2022/10/12 20:49:50;;;;;;;23.10;13.43;;;;;;;;;;5115470;28;20024;-60
2022/10/12 20:52:54;;;;;;;23.10;13.02;;;;;;;;;;5118496;28;20046;-60
2022/10/12 20:55:29;;;;;;;17.13;12.77;;;;;;;;;;5017192;28;20033;-60
2022/10/12 20:58:19;;;;;;;20.70;11.18;;;;;;;;;;5089732;28;20046;-60
2022/10/12 21:01:01;;;;;;;;;;;;;;;;;;;;;
2022/10/12 21:03:49;;;;;;;13.27;11.88;;;;;;;;;;5133210;28;20059;-60
2022/10/12 21:06:29;;;;;;;15.85;11.98;;;;;;;;;;5111355;28;20036;-60
2022/10/12 21:12:45;;;;;;;23.60;13.35;;;;;;;;;;5130486;28;20095;-60
2022/10/12 21:15:24;;;;;;;17.15;10.80;;;;;;;;;;5050057;28;20033;-60
2022/10/12 21:17:59;;;;;;;14.00;11.98;;;;;;;;;;5050580;28;20042;-60
2022/10/12 21:20:44;;;;;;;19.52;11.50;;;;;;;;;;5050881;28;20400;-60
2022/10/12 21:23:32;;;;;;;18.52;13.00;;;;;;;;;;5050531;28;20061;-60
2022/10/12 21:26:26;;;;;;;14.68;11.35;;;;;;;;;;5049916;28;20044;-60
2022/10/12 21:29:13;;;;;;;18.75;11.90;;;;;;;;;;5050834;28;20025;-60
2022/10/12 21:32:03;;;;;;;20.58;12.73;;;;;;;;;;5100581;28;20031;-60
2022/10/12 21:34:49;;;;;;;13.82;10.68;;;;;;;;;;5132504;28;20049;-60
2022/10/12 21:37:47;;;;;;;12.57;11.32;;;;;;;;;;5113407;28;20450;-60
2022/10/12 21:41:02;;;;;;;15.32;10.73;;;;;;;;;;5147508;27;20039;-60
2022/10/12 21:46:44;;;;;;;13.77;10.40;;;;;;;;;;5153416;27;20057;-60
2022/10/12 21:50:07;;;;;;;;;;;;;;;;;;;;;
2022/10/12 21:55:37;;;;;;;;;;;;;;;;;;;;;
2022/10/12 22:01:34;;;;;;;10.98;8.73;;;;;;;;;;5078859;27;20100;-60
2022/10/12 22:04:14;;;;;;;19.85;9.98;;;;;;;;;;5029881;28;20060;-60
2022/10/12 22:07:05;;;;;;;14.45;11.57;;;;;;;;;;5031767;28;20033;-60
2022/10/12 22:09:43;;;;;;;11.50;9.20;;;;;;;;;;5049360;28;20053;-60
2022/10/12 22:12:39;;;;;;;11.00;8.40;;;;;;;;;;5048873;28;20038;-60
2022/10/12 22:18:24;;;;;;;11.80;9.75;;;;;;;;;;5152467;27;20030;-60
2022/10/12 22:21:21;;;;;;;13.70;8.90;;;;;;;;;;5131474;27;20058;-60
2022/10/12 22:24:15;;;;;;;10.50;8.10;;;;;;;;;;5152099;27;20491;-60
2022/10/12 22:30:06;;;;;;;17.40;10.48;;;;;;;;;;5152090;27;20052;-60
2022/10/12 22:38:29;;;;;;;12.90;9.18;;;;;;;;;;5140581;27;20035;-60
2022/10/12 22:41:21;;;;;;;13.52;9.73;;;;;;;;;;5152308;27;20066;-60
2022/10/12 22:44:23;;;;;;;12.82;7.90;;;;;;;;;;5152287;27;20031;-60
2022/10/12 22:47:04;;;;;;;11.05;8.13;;;;;;;;;;5143849;27;20094;-60
2022/10/12 22:49:52;;;;;;;13.55;8.82;;;;;;;;;;5152131;27;20468;-60
2022/10/12 22:52:47;;;;;;;;;;;;;;;;;;;;;
2022/10/12 22:55:09;;;;;;;12.80;8.48;;;;;;;;;;5147780;27;20511;-60
2022/10/12 23:01:13;;;;;;;14.68;8.73;;;;;;;;;;5087925;28;20028;-60
2022/10/12 23:03:58;;;;;;;10.77;8.75;;;;;;;;;;5041119;28;20056;-60
2022/10/12 23:06:25;;;;;;;14.73;10.85;;;;;;;;;;5068713;28;20035;-60
2022/10/12 23:12:08;;;;;;;13.65;9.40;;;;;;;;;;5081399;28;20024;-60
2022/10/12 23:14:42;;;;;;;13.75;8.88;;;;;;;;;;5114341;27;20031;-60
2022/10/12 23:17:28;;;;;;;12.52;9.70;;;;;;;;;;5151181;27;20023;-60
2022/10/12 23:20:07;;;;;;;12.35;9.23;;;;;;;;;;5126940;27;20031;-60
2022/10/12 23:23:14;;;;;;;13.80;9.25;;;;;;;;;;5151625;27;20023;-60